LVNMS ZZZ-SADF
Flight info
| Callsign | LVNMS |
|---|---|
| Flight time | N/A |
| Altitude | 3000 |
| Route | TRINI |
| Aircraft | SR22/L-SDE2E3FGHIRWXY/L |
Departure
| Time | N/A |
|---|---|
| Airport | ZZZ |
Arrival
| Time | 2026-04-29 02:23 |
|---|---|
| Airport | San Fernando Airport (SADF) |
| Time | Latitude | Longitude | Altitude | Speed | Heading |
|---|---|---|---|---|---|
| 2026-04-29 02:08 | -34.73676 | -59.05440 | 2296 ft | 97 kts | 217° |
| 2026-04-29 02:09 | -34.73985 | -59.06066 | 2128 ft | 96 kts | 276° |
| 2026-04-29 02:09 | -34.73886 | -59.06932 | 2130 ft | 110 kts | 284° |
| 2026-04-29 02:09 | -34.73327 | -59.07593 | 2132 ft | 125 kts | 330° |
| 2026-04-29 02:09 | -34.72501 | -59.08005 | 2132 ft | 131 kts | 329° |
| 2026-04-29 02:10 | -34.71655 | -59.08447 | 2124 ft | 134 kts | 330° |
| 2026-04-29 02:10 | -34.70788 | -59.08869 | 2118 ft | 138 kts | 340° |
| 2026-04-29 02:10 | -34.69804 | -59.08661 | 2109 ft | 150 kts | 14° |
| 2026-04-29 02:10 | -34.68839 | -59.08200 | 2115 ft | 149 kts | 13° |
| 2026-04-29 02:11 | -34.68736 | -59.08152 | 2115 ft | 149 kts | 13° |
| 2026-04-29 02:11 | -34.68508 | -59.08045 | 2117 ft | 149 kts | 13° |
| 2026-04-29 02:11 | -34.67542 | -59.07592 | 2116 ft | 149 kts | 13° |
| 2026-04-29 02:11 | -34.66746 | -59.06749 | 2126 ft | 160 kts | 54° |
| 2026-04-29 02:12 | -34.66244 | -59.05521 | 2241 ft | 163 kts | 58° |
| 2026-04-29 02:12 | -34.65724 | -59.04324 | 2410 ft | 162 kts | 56° |
| 2026-04-29 02:12 | -34.65187 | -59.03114 | 2562 ft | 163 kts | 57° |
| 2026-04-29 02:12 | -34.64647 | -59.01899 | 2704 ft | 164 kts | 57° |
| 2026-04-29 02:13 | -34.64096 | -59.00670 | 2848 ft | 165 kts | 57° |
| 2026-04-29 02:13 | -34.63546 | -58.99439 | 3006 ft | 166 kts | 57° |
| 2026-04-29 02:13 | -34.62999 | -58.98207 | 3079 ft | 171 kts | 58° |
| 2026-04-29 02:13 | -34.62420 | -58.96889 | 3083 ft | 177 kts | 58° |
| 2026-04-29 02:14 | -34.61836 | -58.95578 | 3087 ft | 177 kts | 58° |
| 2026-04-29 02:14 | -34.61444 | -58.94692 | 3079 ft | 172 kts | 58° |
| 2026-04-29 02:14 | -34.60936 | -58.93536 | 3061 ft | 154 kts | 57° |
| 2026-04-29 02:14 | -34.60220 | -58.91973 | 3056 ft | 161 kts | 57° |
| 2026-04-29 02:15 | -34.59860 | -58.91179 | 3057 ft | 162 kts | 57° |
| 2026-04-29 02:15 | -34.59317 | -58.89964 | 3054 ft | 164 kts | 57° |
| 2026-04-29 02:15 | -34.58595 | -58.88349 | 3055 ft | 165 kts | 57° |
| 2026-04-29 02:15 | -34.58046 | -58.87122 | 3054 ft | 165 kts | 57° |
| 2026-04-29 02:16 | -34.57681 | -58.86307 | 3055 ft | 165 kts | 57° |
| 2026-04-29 02:16 | -34.57129 | -58.85077 | 3053 ft | 165 kts | 57° |
| 2026-04-29 02:16 | -34.56584 | -58.83853 | 3051 ft | 165 kts | 57° |
| 2026-04-29 02:16 | -34.56041 | -58.82647 | 3046 ft | 165 kts | 57° |
| 2026-04-29 02:17 | -34.55490 | -58.81421 | 3042 ft | 165 kts | 57° |
| 2026-04-29 02:17 | -34.54955 | -58.80180 | 3034 ft | 167 kts | 65° |
| 2026-04-29 02:17 | -34.54969 | -58.78789 | 3022 ft | 167 kts | 111° |
| 2026-04-29 02:17 | -34.55134 | -58.77412 | 3022 ft | 167 kts | 85° |
| 2026-04-29 02:18 | -34.55068 | -58.76004 | 3022 ft | 167 kts | 86° |
| 2026-04-29 02:18 | -34.55013 | -58.74613 | 3019 ft | 168 kts | 85° |
| 2026-04-29 02:18 | -34.55010 | -58.73193 | 3016 ft | 168 kts | 90° |
| 2026-04-29 02:18 | -34.54802 | -58.71805 | 3013 ft | 167 kts | 70° |
| 2026-04-29 02:19 | -34.54472 | -58.70455 | 3015 ft | 167 kts | 70° |
| 2026-04-29 02:19 | -34.53966 | -58.69214 | 3010 ft | 156 kts | 54° |
| 2026-04-29 02:19 | -34.53435 | -58.68175 | 2972 ft | 134 kts | 50° |
| 2026-04-29 02:19 | -34.52828 | -58.67347 | 2669 ft | 135 kts | 33° |
| 2026-04-29 02:20 | -34.52134 | -58.66613 | 2504 ft | 129 kts | 34° |
| 2026-04-29 02:20 | -34.51482 | -58.65886 | 2335 ft | 124 kts | 32° |
| 2026-04-29 02:20 | -34.50834 | -58.65231 | 2189 ft | 117 kts | 28° |
| 2026-04-29 02:20 | -34.50212 | -58.64601 | 2044 ft | 114 kts | 31° |
| 2026-04-29 02:21 | -34.49683 | -58.63943 | 1880 ft | 107 kts | 37° |
| 2026-04-29 02:21 | -34.49172 | -58.63323 | 1690 ft | 95 kts | 29° |
| 2026-04-29 02:21 | -34.48679 | -58.62839 | 1393 ft | 90 kts | 26° |
| 2026-04-29 02:21 | -34.48235 | -58.62315 | 1147 ft | 89 kts | 34° |
| 2026-04-29 02:22 | -34.47815 | -58.61808 | 904 ft | 83 kts | 30° |
| 2026-04-29 02:22 | -34.47394 | -58.61337 | 685 ft | 81 kts | 36° |
| 2026-04-29 02:22 | -34.46992 | -58.60881 | 497 ft | 79 kts | 38° |
| 2026-04-29 02:22 | -34.46599 | -58.60431 | 302 ft | 76 kts | 38° |
| 2026-04-29 02:23 | -34.46232 | -58.59999 | 131 ft | 73 kts | 38° |
| 2026-04-29 02:23 | -34.45867 | -58.59571 | 27 ft | 66 kts | 40° |
| 2026-04-29 02:23 | -34.45583 | -58.59243 | 13 ft | 48 kts | 45° |
| 2026-04-29 02:23 | -34.45367 | -58.58989 | 15 ft | 38 kts | 41° |
| 2026-04-29 02:24 | -34.45198 | -58.58791 | 15 ft | 33 kts | 43° |
| 2026-04-29 02:24 | -34.45030 | -58.58592 | 14 ft | 27 kts | 44° |
| 2026-04-29 02:24 | -34.44895 | -58.58435 | 12 ft | 24 kts | 44° |